createdAt,value
2019-03-01T00:00:21.117Z,5.31
2019-03-01T00:01:30.849Z,5.36
2019-03-01T00:02:40.542Z,5.4
2019-03-01T00:03:50.481Z,5.38
2019-03-01T00:05:00.242Z,5.37
2019-03-01T00:06:10.259Z,5.38
2019-03-01T00:07:19.705Z,5.46
2019-03-01T00:08:29.402Z,5.37
2019-03-01T00:09:38.587Z,5.43
2019-03-01T00:10:48.285Z,5.4
2019-03-01T00:11:57.992Z,5.31
2019-03-01T00:13:07.991Z,5.36
2019-03-01T00:14:17.926Z,5.37
2019-03-01T00:15:27.859Z,5.34
2019-03-01T00:16:37.559Z,5.38
2019-03-01T00:17:47.251Z,5.36
2019-03-01T00:18:57.211Z,5.38
2019-03-01T00:20:06.905Z,5.37
2019-03-01T00:21:16.839Z,5.4
2019-03-01T00:22:26.767Z,5.31
2019-03-01T00:23:36.472Z,5.33
2019-03-01T00:24:46.161Z,5.31
2019-03-01T00:25:56.128Z,5.34
2019-03-01T00:27:05.822Z,5.31
2019-03-01T00:28:15.514Z,5.33
2019-03-01T00:29:25.244Z,5.31
2019-03-01T00:30:35.232Z,5.26
2019-03-01T00:31:45.176Z,5.31
2019-03-01T00:32:54.620Z,5.33
2019-03-01T00:34:04.071Z,5.31
2019-03-01T00:35:14.034Z,5.31
2019-03-01T00:36:24.013Z,5.25
2019-03-01T00:37:33.961Z,5.23
2019-03-01T00:38:43.910Z,5.33
2019-03-01T00:39:53.851Z,5.26
2019-03-01T00:41:03.805Z,5.29
2019-03-01T00:42:13.751Z,5.29
2019-03-01T00:43:23.716Z,5.31
2019-03-01T00:44:33.775Z,5.26
2019-03-01T00:45:43.497Z,5.29
2019-03-01T00:46:53.486Z,5.28
2019-03-01T00:48:03.213Z,5.23
2019-03-01T00:49:12.924Z,5.22
2019-03-01T00:50:22.618Z,5.23
2019-03-01T00:51:32.349Z,5.1
2019-03-01T00:52:42.536Z,5.16
2019-03-01T00:53:52.261Z,5.12
2019-03-01T00:55:02.198Z,5.19
2019-03-01T00:56:11.406Z,5.12
2019-03-01T00:57:21.100Z,5.02
2019-03-01T00:58:31.050Z,5.01
2019-03-01T00:59:41.011Z,5.02
2019-03-01T01:00:50.695Z,5.07
2019-03-01T01:02:00.642Z,5.05
2019-03-01T01:03:10.343Z,5.02
2019-03-01T01:04:20.041Z,5.05
2019-03-01T01:05:29.985Z,5.07
2019-03-01T01:06:39.925Z,5.05
2019-03-01T01:07:49.617Z,5
2019-03-01T01:08:59.319Z,5.01
2019-03-01T01:10:09.305Z,5.1
2019-03-01T01:11:19.251Z,5.07
2019-03-01T01:12:29.194Z,5.05
2019-03-01T01:13:39.137Z,5.05
2019-03-01T01:14:48.582Z,5.1
2019-03-01T01:15:58.270Z,5.2
2019-03-01T01:17:08.201Z,5.12
2019-03-01T01:18:18.148Z,5.16
2019-03-01T01:19:27.851Z,5.18
2019-03-01T01:20:37.800Z,5.16
2019-03-01T01:21:47.758Z,5.16
2019-03-01T01:22:57.737Z,5.19
2019-03-01T01:24:07.173Z,5.18
2019-03-01T01:25:16.862Z,5.16
2019-03-01T01:26:26.805Z,5.19
2019-03-01T01:27:36.744Z,5.22
2019-03-01T01:28:48.417Z,5.19
2019-03-01T01:29:58.351Z,5.2
2019-03-01T01:31:08.062Z,5.23
2019-03-01T01:32:17.779Z,5.22
2019-03-01T01:33:27.767Z,5.19
2019-03-01T01:34:37.713Z,5.22
2019-03-01T01:35:47.656Z,5.23
2019-03-01T01:36:57.593Z,5.23
2019-03-01T01:38:07.549Z,5.19
2019-03-01T01:39:17.240Z,5.25
2019-03-01T01:40:28.437Z,5.22
2019-03-01T01:41:38.151Z,5.23
2019-03-01T01:42:48.153Z,5.26
2019-03-01T01:43:57.851Z,5.22
2019-03-01T01:45:07.579Z,5.18
2019-03-01T01:46:17.539Z,5.18
2019-03-01T01:47:27.239Z,5.16
2019-03-01T01:48:36.934Z,5.15
2019-03-01T01:49:46.881Z,5.18
2019-03-01T01:50:56.332Z,5.2
2019-03-01T01:52:06.006Z,5.18
2019-03-01T01:53:15.955Z,5.23
2019-03-01T01:54:25.395Z,5.23
2019-03-01T01:55:35.340Z,5.19
2019-03-01T01:56:45.287Z,5.19
2019-03-01T01:57:55.238Z,5.23
2019-03-01T01:59:04.932Z,5.22
2019-03-01T02:00:14.633Z,5.2
2019-03-01T02:01:24.608Z,5.22
2019-03-01T02:02:34.305Z,5.19
2019-03-01T02:03:43.741Z,5.15
2019-03-01T02:04:53.469Z,5.15
2019-03-01T02:06:03.413Z,5.15
2019-03-01T02:07:13.359Z,5.19
2019-03-01T02:08:23.043Z,5.19
2019-03-01T02:09:32.768Z,5.19
2019-03-01T02:10:42.724Z,5.18
2019-03-01T02:11:52.675Z,5.22
2019-03-01T02:13:02.635Z,5.25
2019-03-01T02:14:12.583Z,5.16
2019-03-01T02:15:22.027Z,5.18
2019-03-01T02:16:31.725Z,5.23
2019-03-01T02:17:41.410Z,5.16
2019-03-01T02:19:00.096Z,5.19
2019-03-01T02:20:10.049Z,5.19
2019-03-01T02:21:19.739Z,5.19
2019-03-01T02:22:29.686Z,5.15
2019-03-01T02:23:40.215Z,5.2
2019-03-01T02:24:49.974Z,5.25
2019-03-01T02:25:59.682Z,5.23
2019-03-01T02:27:09.372Z,5.25
2019-03-01T02:28:19.090Z,5.33
2019-03-01T02:29:28.792Z,5.31
2019-03-01T02:30:38.745Z,5.31
2019-03-01T02:31:48.714Z,5.36
2019-03-01T02:32:58.667Z,5.33
2019-03-01T02:34:08.633Z,5.31
2019-03-01T02:35:18.377Z,5.31
2019-03-01T02:36:28.337Z,5.34
2019-03-01T02:37:38.037Z,5.29
2019-03-01T02:38:47.731Z,5.31
2019-03-01T02:39:57.697Z,5.28
2019-03-01T02:41:07.988Z,5.34
2019-03-01T02:42:17.961Z,5.29
2019-03-01T02:43:27.921Z,5.26
2019-03-01T02:44:37.866Z,5.34
2019-03-01T02:45:47.576Z,5.31
2019-03-01T02:46:57.544Z,5.28
2019-03-01T02:48:07.249Z,5.31
2019-03-01T02:49:17.213Z,5.31
2019-03-01T02:50:27.192Z,5.36
2019-03-01T02:51:37.149Z,5.37
2019-03-01T02:52:47.101Z,5.29
2019-03-01T02:53:57.085Z,5.31
2019-03-01T02:55:07.074Z,5.36
2019-03-01T02:56:16.575Z,5.38
2019-03-01T02:57:26.307Z,5.38
2019-03-01T02:58:36.351Z,5.41
2019-03-01T02:59:45.816Z,5.36
2019-03-01T03:00:55.784Z,5.33
2019-03-01T03:02:05.809Z,5.38
2019-03-01T03:03:15.794Z,5.43
2019-03-01T03:04:25.742Z,5.41
2019-03-01T03:05:35.427Z,5.41
2019-03-01T03:06:45.459Z,5.38
2019-03-01T03:07:55.456Z,5.44
2019-03-01T03:09:05.422Z,5.46
2019-03-01T03:10:15.150Z,5.37
2019-03-01T03:11:25.150Z,5.36
2019-03-01T03:12:35.097Z,5.37
2019-03-01T03:13:45.086Z,5.43
2019-03-01T03:14:55.092Z,5.47
2019-03-01T03:16:04.844Z,5.41
2019-03-01T03:17:14.823Z,5.41
2019-03-01T03:18:24.309Z,5.43
2019-03-01T03:19:34.285Z,5.44
2019-03-01T03:20:44.227Z,5.51
2019-03-01T03:21:53.989Z,5.58
2019-03-01T03:23:03.710Z,5.55
2019-03-01T03:24:13.714Z,5.56
2019-03-01T03:25:23.688Z,5.46
2019-03-01T03:26:33.641Z,5.46
2019-03-01T03:27:43.184Z,5.43
2019-03-01T03:28:53.067Z,5.56
2019-03-01T03:30:03.281Z,5.59
2019-03-01T03:31:12.770Z,5.59
2019-03-01T03:32:22.753Z,5.56
2019-03-01T03:33:32.733Z,5.61
2019-03-01T03:34:42.793Z,5.62
2019-03-01T03:35:52.789Z,5.72
2019-03-01T03:37:02.771Z,5.59
2019-03-01T03:38:12.725Z,5.62
2019-03-01T03:39:22.188Z,5.61
2019-03-01T03:40:31.905Z,5.64
2019-03-01T03:41:41.922Z,5.55
2019-03-01T03:42:51.674Z,5.59
2019-03-01T03:44:01.643Z,5.62
2019-03-01T03:45:11.595Z,5.62
2019-03-01T03:46:21.569Z,5.58
2019-03-01T03:47:31.548Z,5.52
2019-03-01T03:48:41.297Z,5.65
2019-03-01T03:49:51.256Z,5.58
2019-03-01T03:51:01.210Z,5.64
2019-03-01T03:52:11.178Z,5.7
2019-03-01T03:53:21.205Z,5.69
2019-03-01T03:54:30.913Z,5.65
2019-03-01T03:55:40.388Z,5.7
2019-03-01T03:56:50.409Z,5.73
2019-03-01T03:58:00.137Z,5.7
2019-03-01T03:59:10.097Z,5.72
2019-03-01T04:00:20.141Z,5.73
2019-03-01T04:01:29.903Z,5.7
2019-03-01T04:02:39.849Z,5.8
2019-03-01T04:03:49.298Z,5.76
2019-03-01T04:04:59.030Z,5.69
2019-03-01T04:06:08.800Z,5.65
2019-03-01T04:07:18.535Z,5.76
2019-03-01T04:08:28.240Z,5.76
2019-03-01T04:09:38.281Z,5.77
2019-03-01T04:10:48.219Z,5.7
2019-03-01T04:11:57.927Z,5.8
2019-03-01T04:13:07.883Z,5.74
2019-03-01T04:14:17.837Z,5.73
2019-03-01T04:15:27.796Z,5.69
2019-03-01T04:16:37.523Z,5.7
2019-03-01T04:17:46.982Z,5.73
2019-03-01T04:18:56.941Z,5.74
2019-03-01T04:20:06.801Z,5.69
2019-03-01T04:21:16.504Z,5.7
2019-03-01T04:22:26.195Z,5.69
2019-03-01T04:23:35.399Z,5.69
2019-03-01T04:24:45.366Z,5.62
2019-03-01T04:25:55.070Z,5.7
2019-03-01T04:27:05.024Z,5.74
2019-03-01T04:28:14.996Z,5.67
2019-03-01T04:29:24.983Z,5.72
2019-03-01T04:30:34.955Z,5.74
2019-03-01T04:31:44.668Z,5.73
2019-03-01T04:32:54.615Z,5.73
2019-03-01T04:34:06.014Z,5.8
2019-03-01T04:35:16.136Z,5.8
2019-03-01T04:36:25.846Z,5.74
2019-03-01T04:37:35.044Z,5.73
2019-03-01T04:38:44.751Z,5.77
2019-03-01T04:39:54.717Z,5.67
2019-03-01T04:41:04.657Z,5.65
2019-03-01T04:42:14.609Z,5.67
2019-03-01T04:43:24.568Z,5.77
2019-03-01T04:44:34.511Z,5.67
2019-03-01T04:45:44.452Z,5.65
2019-03-01T04:46:54.149Z,5.72
2019-03-01T04:48:04.092Z,5.77
2019-03-01T04:49:14.061Z,5.73
2019-03-01T04:50:24.007Z,5.79
2019-03-01T04:51:42.488Z,5.7
2019-03-01T04:52:52.458Z,5.67
2019-03-01T04:54:02.404Z,5.62
2019-03-01T04:55:12.091Z,5.65
2019-03-01T04:56:24.252Z,5.69
2019-03-01T04:57:34.231Z,5.56
2019-03-01T04:58:43.698Z,5.56
2019-03-01T04:59:53.396Z,5.56
2019-03-01T05:01:03.342Z,5.43
2019-03-01T05:02:12.799Z,5.49
2019-03-01T05:03:22.762Z,5.36
2019-03-01T05:04:32.741Z,5.36
2019-03-01T05:05:41.930Z,5.37
2019-03-01T05:06:51.883Z,5.46
2019-03-01T05:08:01.559Z,5.38
2019-03-01T05:09:11.505Z,5.36
2019-03-01T05:10:21.448Z,5.29
2019-03-01T05:11:30.894Z,5.34
2019-03-01T05:12:40.875Z,5.33
2019-03-01T05:13:50.811Z,5.33
2019-03-01T05:15:00.498Z,5.29
2019-03-01T05:16:10.186Z,5.31
2019-03-01T05:17:20.136Z,5.38
2019-03-01T05:18:29.831Z,5.4
2019-03-01T05:19:39.519Z,5.49
2019-03-01T05:20:49.463Z,5.51
2019-03-01T05:21:59.168Z,5.4
2019-03-01T05:23:08.636Z,5.47
2019-03-01T05:24:18.324Z,5.41
2019-03-01T05:25:28.270Z,5.43
2019-03-01T05:26:38.212Z,5.38
2019-03-01T05:27:48.163Z,5.34
2019-03-01T05:28:58.093Z,5.4
2019-03-01T05:30:08.051Z,5.44
2019-03-01T05:31:17.999Z,5.44
2019-03-01T05:32:27.949Z,5.36
2019-03-01T05:33:37.909Z,5.34
2019-03-01T05:34:47.605Z,5.26
2019-03-01T05:35:57.559Z,5.36
2019-03-01T05:37:07.525Z,5.38
2019-03-01T05:38:26.285Z,5.33
2019-03-01T05:39:35.991Z,5.33
2019-03-01T05:40:45.678Z,5.36
2019-03-01T05:41:55.631Z,5.36
2019-03-01T05:43:05.618Z,5.36
2019-03-01T05:44:15.582Z,5.41
2019-03-01T05:45:25.528Z,5.43
2019-03-01T05:46:35.233Z,5.41
2019-03-01T05:47:44.917Z,5.51
2019-03-01T05:48:54.612Z,5.49
2019-03-01T05:50:04.058Z,5.55
2019-03-01T05:51:14.719Z,5.58
2019-03-01T05:52:24.691Z,5.56
2019-03-01T05:53:34.395Z,5.59
2019-03-01T05:54:44.355Z,5.56
2019-03-01T05:55:54.312Z,5.59
2019-03-01T05:57:04.007Z,5.7
2019-03-01T05:58:21.125Z,5.69
2019-03-01T05:59:30.836Z,5.69
2019-03-01T06:00:40.331Z,5.69
2019-03-01T06:01:50.072Z,5.7
2019-03-01T06:02:59.775Z,5.67
2019-03-01T06:04:09.213Z,5.72
2019-03-01T06:05:18.922Z,5.7
2019-03-01T06:06:30.321Z,5.64
2019-03-01T06:07:40.012Z,5.65
2019-03-01T06:08:49.969Z,5.7
2019-03-01T06:09:59.662Z,5.7
2019-03-01T06:11:09.361Z,5.69
2019-03-01T06:12:19.063Z,5.72
2019-03-01T06:13:29.002Z,5.8
2019-03-01T06:14:38.951Z,5.7
2019-03-01T06:15:48.650Z,5.83
2019-03-01T06:16:58.098Z,5.8
2019-03-01T06:18:08.059Z,5.84
2019-03-01T06:19:17.783Z,5.9
2019-03-01T06:20:27.731Z,5.9
2019-03-01T06:21:37.414Z,5.9
2019-03-01T06:22:47.365Z,5.84
2019-03-01T06:23:57.318Z,5.92
2019-03-01T06:25:07.040Z,5.88
2019-03-01T06:26:16.737Z,5.87
2019-03-01T06:27:26.428Z,5.88
2019-03-01T06:28:36.112Z,5.83
2019-03-01T06:29:45.802Z,5.83
2019-03-01T06:30:56.916Z,5.81
2019-03-01T06:32:06.885Z,5.9
2019-03-01T06:33:16.579Z,5.92
2019-03-01T06:34:26.555Z,5.83
2019-03-01T06:35:36.017Z,5.97
2019-03-01T06:36:45.767Z,5.97
2019-03-01T06:37:55.458Z,6.02
2019-03-01T06:39:05.155Z,6.05
2019-03-01T06:40:15.100Z,6.02
2019-03-01T06:41:24.795Z,6.09
2019-03-01T06:42:34.751Z,5.98
2019-03-01T06:43:44.714Z,6.02
2019-03-01T06:44:54.417Z,6.06
2019-03-01T06:46:04.365Z,6.09
2019-03-01T06:47:14.067Z,6.09
2019-03-01T06:48:24.008Z,6.05
2019-03-01T06:49:33.970Z,6.01
2019-03-01T06:50:43.431Z,6.09
2019-03-01T06:51:53.415Z,6.13
2019-03-01T06:53:03.150Z,6.13
2019-03-01T06:54:13.121Z,6.16
2019-03-01T06:55:23.089Z,6.15
2019-03-01T06:56:33.043Z,6.09
2019-03-01T06:57:42.751Z,6.16
2019-03-01T06:58:52.713Z,6.13
2019-03-01T07:00:02.780Z,6.13
2019-03-01T07:01:12.917Z,6.13
2019-03-01T07:02:22.891Z,6.15
2019-03-01T07:03:32.606Z,6.2
2019-03-01T07:04:42.565Z,6.13
2019-03-01T07:05:52.515Z,6.2
2019-03-01T07:07:10.918Z,6.19
2019-03-01T07:08:20.613Z,6.16
2019-03-01T07:09:30.569Z,6.17
2019-03-01T07:10:40.515Z,6.22
2019-03-01T07:11:50.514Z,6.22
2019-03-01T07:13:00.471Z,6.15
2019-03-01T07:14:10.172Z,6.25
2019-03-01T07:15:19.895Z,6.32
2019-03-01T07:16:29.831Z,6.32
2019-03-01T07:17:39.777Z,6.26
2019-03-01T07:18:49.525Z,6.32
2019-03-01T07:19:59.227Z,6.31
2019-03-01T07:21:08.931Z,6.28
2019-03-01T07:22:18.643Z,6.29
2019-03-01T07:23:36.451Z,6.38
2019-03-01T07:24:46.711Z,6.34
2019-03-01T07:25:57.417Z,6.36
2019-03-01T07:27:07.125Z,6.31
2019-03-01T07:28:17.729Z,6.34
2019-03-01T07:29:27.432Z,6.39
2019-03-01T07:30:37.125Z,6.35
2019-03-01T07:31:47.170Z,6.35
2019-03-01T07:32:57.149Z,6.35
2019-03-01T07:34:07.181Z,6.41
2019-03-01T07:35:16.884Z,6.39
2019-03-01T07:36:26.624Z,6.38
2019-03-01T07:37:36.598Z,6.35
2019-03-01T07:38:46.593Z,6.41
2019-03-01T07:39:56.559Z,6.32
2019-03-01T07:41:06.583Z,6.38
2019-03-01T07:42:16.542Z,6.5
2019-03-01T07:43:26.022Z,6.43
2019-03-01T07:44:35.991Z,6.39
2019-03-01T07:45:45.699Z,6.44
2019-03-01T07:46:58.153Z,6.5
2019-03-01T07:48:08.120Z,6.6
2019-03-01T07:49:17.600Z,6.57
2019-03-01T07:50:27.923Z,6.6
2019-03-01T07:51:38.501Z,6.59
2019-03-01T07:52:47.950Z,6.54
2019-03-01T07:53:57.909Z,6.65
2019-03-01T07:55:09.322Z,6.57
2019-03-01T07:56:18.878Z,6.64
2019-03-01T07:57:28.583Z,6.52
2019-03-01T07:58:39.274Z,6.56
2019-03-01T07:59:49.249Z,6.62
2019-03-01T08:00:59.578Z,6.72
2019-03-01T08:02:09.859Z,6.56
2019-03-01T08:03:20.718Z,6.68
2019-03-01T08:04:34.267Z,6.68
2019-03-01T08:05:45.202Z,6.72
2019-03-01T08:06:55.178Z,6.71
2019-03-01T08:08:08.444Z,6.74
2019-03-01T08:09:18.140Z,6.72
2019-03-01T08:10:28.106Z,6.74
2019-03-01T08:11:38.079Z,6.71
2019-03-01T08:12:50.083Z,6.7
2019-03-01T08:13:59.807Z,6.71
2019-03-01T08:15:13.840Z,6.75
2019-03-01T08:16:27.653Z,6.7
2019-03-01T08:17:37.638Z,6.75
2019-03-01T08:18:49.778Z,6.7
2019-03-01T08:20:04.361Z,6.72
2019-03-01T08:21:17.299Z,6.74
2019-03-01T08:22:30.677Z,6.72
2019-03-01T08:23:55.441Z,6.78
2019-03-01T08:25:05.443Z,6.64
2019-03-01T08:26:15.421Z,6.72
2019-03-01T08:27:27.430Z,6.7
2019-03-01T08:28:37.147Z,6.7
2019-03-01T08:29:47.141Z,6.67
2019-03-01T08:30:57.092Z,6.71
2019-03-01T08:32:07.044Z,6.77
2019-03-01T08:33:17.016Z,6.67
2019-03-01T08:34:27.035Z,6.68
2019-03-01T08:35:37.127Z,6.67
2019-03-01T08:36:48.375Z,6.72
2019-03-01T08:37:59.017Z,6.68
2019-03-01T08:39:10.543Z,6.65
2019-03-01T08:40:20.536Z,6.7
2019-03-01T08:41:30.867Z,6.56
2019-03-01T08:42:41.354Z,6.53
2019-03-01T08:43:54.605Z,6.56
2019-03-01T08:45:05.380Z,6.49
2019-03-01T08:46:15.331Z,6.53
2019-03-01T08:47:28.435Z,6.62
2019-03-01T08:48:39.633Z,6.64
2019-03-01T08:49:49.598Z,6.53
2019-03-01T08:50:59.554Z,6.56
2019-03-01T08:52:09.288Z,6.54
2019-03-01T08:53:20.833Z,6.54
2019-03-01T08:54:33.635Z,6.57
2019-03-01T08:55:44.311Z,6.57
2019-03-01T08:56:55.164Z,6.59
2019-03-01T08:58:09.616Z,6.56
2019-03-01T08:59:22.955Z,6.6
2019-03-01T09:00:32.782Z,6.53
2019-03-01T09:01:47.034Z,6.62
2019-03-01T09:02:56.738Z,6.7
2019-03-01T09:04:06.740Z,6.57
2019-03-01T09:05:22.111Z,6.56
2019-03-01T09:06:32.066Z,6.6
2019-03-01T09:07:42.017Z,6.56
2019-03-01T09:08:51.978Z,6.59
2019-03-01T09:10:02.813Z,6.65
2019-03-01T09:11:14.772Z,6.59
2019-03-01T09:12:26.916Z,6.68
2019-03-01T09:13:38.712Z,6.82
2019-03-01T09:14:48.700Z,6.74
2019-03-01T09:15:58.435Z,6.67
2019-03-01T09:17:08.684Z,6.86
2019-03-01T09:18:19.491Z,6.83
2019-03-01T09:19:30.833Z,6.82
2019-03-01T09:20:43.359Z,6.86
2019-03-01T09:21:55.711Z,6.89
2019-03-01T09:23:27.262Z,6.96
2019-03-01T09:24:37.352Z,6.97
2019-03-01T09:25:52.251Z,7
2019-03-01T09:27:01.980Z,7
2019-03-01T09:28:11.698Z,7.05
2019-03-01T09:29:23.446Z,7.04
2019-03-01T09:30:33.426Z,7.08
2019-03-01T09:31:45.389Z,7.18
2019-03-01T09:32:55.854Z,7.14
2019-03-01T09:34:06.225Z,7.18
2019-03-01T09:35:16.282Z,7.21
2019-03-01T09:36:26.391Z,7.21
2019-03-01T09:37:37.443Z,7.22
2019-03-01T09:38:48.109Z,7.11
2019-03-01T09:40:07.940Z,7.19
2019-03-01T09:41:17.911Z,7.23
2019-03-01T09:42:27.659Z,7.19
2019-03-01T09:43:37.630Z,7.19
2019-03-01T09:44:47.364Z,7.25
2019-03-01T09:45:56.578Z,7.15
2019-03-01T09:47:07.488Z,7.05
2019-03-01T09:48:17.834Z,6.95
2019-03-01T09:49:29.950Z,6.96
2019-03-01T09:50:42.839Z,6.87
2019-03-01T09:51:54.844Z,6.86
2019-03-01T09:53:04.572Z,6.92
2019-03-01T09:54:15.113Z,6.9
2019-03-01T09:55:24.822Z,6.96
2019-03-01T09:56:34.820Z,6.93
2019-03-01T09:57:44.535Z,7.04
2019-03-01T09:58:54.260Z,7.05
2019-03-01T10:00:04.010Z,7.14
2019-03-01T10:01:13.764Z,7.13
2019-03-01T10:02:23.493Z,7.14
2019-03-01T10:03:33.499Z,7.14
2019-03-01T10:04:43.460Z,7.14
2019-03-01T10:05:53.173Z,7.21
2019-03-01T10:07:02.989Z,7.15
2019-03-01T10:08:12.700Z,7.31
2019-03-01T10:09:22.443Z,7.36
2019-03-01T10:10:32.056Z,7.32
2019-03-01T10:11:41.795Z,7.33
2019-03-01T10:12:51.512Z,7.33
2019-03-01T10:14:01.256Z,7.41
2019-03-01T10:15:11.215Z,7.39
2019-03-01T10:16:20.921Z,7.41
2019-03-01T10:17:30.906Z,7.43
2019-03-01T10:18:40.870Z,7.5
2019-03-01T10:19:50.858Z,7.44
2019-03-01T10:21:00.836Z,7.51
2019-03-01T10:22:10.532Z,7.53
2019-03-01T10:23:19.990Z,7.53
2019-03-01T10:24:29.931Z,7.53
2019-03-01T10:25:39.975Z,7.59
2019-03-01T10:26:49.967Z,7.62
2019-03-01T10:27:59.698Z,7.67
2019-03-01T10:29:09.470Z,7.58
2019-03-01T10:30:19.183Z,7.62
2019-03-01T10:31:28.890Z,7.62
2019-03-01T10:32:38.597Z,7.67
2019-03-01T10:33:48.561Z,7.61
2019-03-01T10:34:58.516Z,7.53
2019-03-01T10:36:08.499Z,7.5
2019-03-01T10:37:18.457Z,7.48
2019-03-01T10:38:28.415Z,7.56
2019-03-01T10:39:38.363Z,7.59
2019-03-01T10:40:48.334Z,7.62
2019-03-01T10:41:58.290Z,7.66
2019-03-01T10:43:08.002Z,7.61
2019-03-01T10:44:17.957Z,7.59
2019-03-01T10:45:27.949Z,7.62
2019-03-01T10:46:37.911Z,7.56
2019-03-01T10:47:47.608Z,7.66
2019-03-01T10:48:57.567Z,7.62
2019-03-01T10:50:07.514Z,7.61
2019-03-01T10:51:16.971Z,7.74
2019-03-01T10:52:26.710Z,7.7
2019-03-01T10:53:36.446Z,7.67
2019-03-01T10:54:46.183Z,7.66
2019-03-01T10:55:56.147Z,7.72
2019-03-01T10:57:05.864Z,7.59
2019-03-01T10:58:15.813Z,7.62
2019-03-01T10:59:25.519Z,7.66
2019-03-01T11:00:35.523Z,7.61
2019-03-01T11:01:45.631Z,7.59
2019-03-01T11:02:55.598Z,7.66
2019-03-01T11:04:05.312Z,7.62
2019-03-01T11:05:15.303Z,7.61
2019-03-01T11:06:25.280Z,7.64
2019-03-01T11:07:35.256Z,7.8
2019-03-01T11:08:45.245Z,7.66
2019-03-01T11:09:55.206Z,7.8
2019-03-01T11:11:04.743Z,7.75
2019-03-01T11:12:14.467Z,7.74
2019-03-01T11:13:24.468Z,7.64
2019-03-01T11:14:34.194Z,7.64
2019-03-01T11:15:44.411Z,7.66
2019-03-01T11:16:55.395Z,7.61
2019-03-01T11:18:04.892Z,7.56
2019-03-01T11:19:14.620Z,7.48
2019-03-01T11:20:24.583Z,7.5
2019-03-01T11:21:34.757Z,7.48
2019-03-01T11:22:44.718Z,7.44
2019-03-01T11:23:54.723Z,7.55
2019-03-01T11:25:04.440Z,7.51
2019-03-01T11:26:14.163Z,7.53
2019-03-01T11:27:24.133Z,7.62
2019-03-01T11:28:33.591Z,7.62
2019-03-01T11:29:43.533Z,7.64
2019-03-01T11:30:53.496Z,7.69
2019-03-01T11:32:03.454Z,7.64
2019-03-01T11:33:13.162Z,7.53
2019-03-01T11:34:22.856Z,7.48
2019-03-01T11:35:32.572Z,7.47
2019-03-01T11:36:42.559Z,7.5
2019-03-01T11:37:52.018Z,7.46
2019-03-01T11:39:01.729Z,7.33
2019-03-01T11:40:11.442Z,7.28
2019-03-01T11:41:21.420Z,7.29
2019-03-01T11:42:31.390Z,7.22
2019-03-01T11:43:41.359Z,7.36
2019-03-01T11:44:51.319Z,7.21
2019-03-01T11:46:03.127Z,7.18
2019-03-01T11:47:12.862Z,7.18
2019-03-01T11:48:22.846Z,7.15
2019-03-01T11:49:32.809Z,7.21
2019-03-01T11:50:42.755Z,7.15
2019-03-01T11:51:52.724Z,7.29
2019-03-01T11:53:02.710Z,7.31
2019-03-01T11:54:12.690Z,7.36
2019-03-01T11:55:22.626Z,7.19
2019-03-01T11:56:32.577Z,7.36
2019-03-01T11:57:42.311Z,7.32
2019-03-01T11:58:52.303Z,7.25
2019-03-01T12:00:02.033Z,7.39
2019-03-01T12:01:21.661Z,7.36
2019-03-01T12:02:31.107Z,7.32
2019-03-01T12:03:41.112Z,7.43
2019-03-01T12:04:51.068Z,7.41
2019-03-01T12:06:00.785Z,7.51
2019-03-01T12:07:10.783Z,7.46
2019-03-01T12:08:20.771Z,7.55
2019-03-01T12:09:30.769Z,7.46
2019-03-01T12:10:40.726Z,7.48
2019-03-01T12:11:50.444Z,7.43
2019-03-01T12:13:00.395Z,7.53
2019-03-01T12:14:10.107Z,7.48
2019-03-01T12:15:19.815Z,7.44
2019-03-01T12:16:29.793Z,7.48
2019-03-01T12:17:39.491Z,7.53
2019-03-01T12:18:49.463Z,7.47
2019-03-01T12:19:59.417Z,7.47
2019-03-01T12:21:09.127Z,7.39
2019-03-01T12:22:22.093Z,7.39
2019-03-01T12:23:32.045Z,7.33
2019-03-01T12:24:42.007Z,7.36
2019-03-01T12:25:51.726Z,7.31
2019-03-01T12:27:01.456Z,7.31
2019-03-01T12:28:11.415Z,7.31
2019-03-01T12:29:21.123Z,7.22
2019-03-01T12:30:31.098Z,7.15
2019-03-01T12:31:41.053Z,7.37
2019-03-01T12:32:50.491Z,7.29
2019-03-01T12:34:00.195Z,7.33
2019-03-01T12:35:09.940Z,7.18
2019-03-01T12:36:19.919Z,7.19
2019-03-01T12:37:29.884Z,7.22
2019-03-01T12:38:39.852Z,7.21
2019-03-01T12:39:49.306Z,7.18
2019-03-01T12:40:59.007Z,7.21
2019-03-01T12:42:08.980Z,7.36
2019-03-01T12:43:18.930Z,7.37
2019-03-01T12:44:28.895Z,7.32
2019-03-01T12:45:38.585Z,7.36
2019-03-01T12:46:48.779Z,7.33
2019-03-01T12:47:58.485Z,7.36
2019-03-01T12:49:08.447Z,7.21
2019-03-01T12:50:18.395Z,7.23
2019-03-01T12:51:28.108Z,7.23
2019-03-01T12:52:37.812Z,7.11
2019-03-01T12:53:47.256Z,6.96
2019-03-01T12:54:57.213Z,6.96
2019-03-01T12:56:07.169Z,6.92
2019-03-01T12:57:17.126Z,6.95
2019-03-01T12:58:26.579Z,6.97
2019-03-01T12:59:36.523Z,7.05
2019-03-01T13:00:46.476Z,7.08
2019-03-01T13:01:55.938Z,7.04
2019-03-01T13:03:08.936Z,7.01
2019-03-01T13:04:21.098Z,6.95
2019-03-01T13:05:34.582Z,6.96
2019-03-01T13:06:44.755Z,6.95
2019-03-01T13:07:56.585Z,6.9
2019-03-01T13:09:06.558Z,6.87
2019-03-01T13:10:17.131Z,6.95
2019-03-01T13:11:27.085Z,6.89
2019-03-01T13:12:36.785Z,6.89
2019-03-01T13:13:46.219Z,6.86
2019-03-01T13:14:56.181Z,6.77
2019-03-01T13:16:05.897Z,6.85
2019-03-01T13:17:15.850Z,6.9
2019-03-01T13:18:25.556Z,6.87
2019-03-01T13:19:35.516Z,6.93
2019-03-01T13:20:45.218Z,6.9
2019-03-01T13:21:55.181Z,6.86
2019-03-01T13:23:08.323Z,6.89
2019-03-01T13:24:21.959Z,6.85
2019-03-01T13:25:34.855Z,6.82
2019-03-01T13:26:46.109Z,6.86
2019-03-01T13:27:57.176Z,6.8
2019-03-01T13:29:07.135Z,6.78
2019-03-01T13:30:16.602Z,6.78
2019-03-01T13:31:26.039Z,6.68
2019-03-01T13:32:35.987Z,6.68
2019-03-01T13:33:45.934Z,6.68
2019-03-01T13:34:55.878Z,6.72
2019-03-01T13:36:09.286Z,6.65
2019-03-01T13:37:25.033Z,6.7
2019-03-01T13:38:38.485Z,6.68
2019-03-01T13:39:52.821Z,6.68
2019-03-01T13:41:05.296Z,6.6
2019-03-01T13:42:18.236Z,6.57
2019-03-01T13:43:30.602Z,6.59
2019-03-01T13:44:45.167Z,6.47
2019-03-01T13:45:57.848Z,6.36
2019-03-01T13:47:13.044Z,6.46
2019-03-01T13:48:23.939Z,6.44
2019-03-01T13:49:35.354Z,6.36
2019-03-01T13:50:47.071Z,6.28
2019-03-01T13:51:58.571Z,6.29
2019-03-01T13:53:09.049Z,6.29
2019-03-01T13:54:19.028Z,6.28
2019-03-01T13:55:30.136Z,6.29
2019-03-01T13:56:40.870Z,6.26
2019-03-01T13:57:54.207Z,6.26
2019-03-01T13:59:07.373Z,6.2
2019-03-01T14:00:17.345Z,6.28
2019-03-01T14:01:31.568Z,6.25
2019-03-01T14:02:42.990Z,6.13
2019-03-01T14:03:55.039Z,6.19
2019-03-01T14:05:13.214Z,6.13
2019-03-01T14:06:24.828Z,6.12
2019-03-01T14:07:34.310Z,6.17
2019-03-01T14:08:44.071Z,6.22
2019-03-01T14:09:53.506Z,6.2
2019-03-01T14:11:06.215Z,6.16
2019-03-01T14:12:15.942Z,6.15
2019-03-01T14:13:25.923Z,6.25
2019-03-01T14:14:36.953Z,6.13
2019-03-01T14:15:46.891Z,6.15
2019-03-01T14:16:57.928Z,6.17
2019-03-01T14:18:07.908Z,6.32
2019-03-01T14:19:17.611Z,6.25
2019-03-01T14:20:27.584Z,6.31
2019-03-01T14:21:37.946Z,6.35
2019-03-01T14:22:52.130Z,6.39
2019-03-01T14:24:02.078Z,6.39
2019-03-01T14:25:12.025Z,6.53
2019-03-01T14:26:24.030Z,6.57
2019-03-01T14:27:35.061Z,6.52
2019-03-01T14:28:46.738Z,6.65
2019-03-01T14:29:58.453Z,6.59
2019-03-01T14:31:12.278Z,6.6
2019-03-01T14:32:25.786Z,6.62
2019-03-01T14:33:37.994Z,6.68
2019-03-01T14:34:52.614Z,6.68
2019-03-01T14:36:05.987Z,6.72
2019-03-01T14:37:18.418Z,6.7
2019-03-01T14:38:33.311Z,6.74
2019-03-01T14:39:47.375Z,6.85
2019-03-01T14:41:01.582Z,6.85
2019-03-01T14:42:15.387Z,6.89
2019-03-01T14:43:29.619Z,6.95
2019-03-01T14:44:39.575Z,6.92
2019-03-01T14:45:50.377Z,6.97
2019-03-01T14:47:01.737Z,7.03
2019-03-01T14:48:14.258Z,7.05
2019-03-01T14:49:27.391Z,7.07
2019-03-01T14:50:39.022Z,7.03
2019-03-01T14:51:52.358Z,7.04
2019-03-01T14:53:03.853Z,7.03
2019-03-01T14:54:14.766Z,7.04
2019-03-01T14:55:28.664Z,7.03
2019-03-01T14:56:40.388Z,7.08
2019-03-01T14:57:51.130Z,7.01
2019-03-01T14:59:03.516Z,7
2019-03-01T15:00:16.896Z,6.93
2019-03-01T15:01:31.076Z,6.95
2019-03-01T15:02:44.628Z,7.03
2019-03-01T15:03:58.144Z,7.04
2019-03-01T15:05:21.153Z,7.07
2019-03-01T15:06:30.867Z,7.03
2019-03-01T15:07:42.491Z,7.14
2019-03-01T15:08:52.459Z,7.14
2019-03-01T15:10:03.038Z,7.13
2019-03-01T15:11:14.036Z,7.15
2019-03-01T15:12:25.670Z,7.11
2019-03-01T15:13:37.128Z,7.14
2019-03-01T15:14:52.177Z,7.04
2019-03-01T15:16:06.596Z,7.08
2019-03-01T15:17:18.245Z,7.01
2019-03-01T15:18:34.113Z,7.04
2019-03-01T15:19:49.038Z,6.97
2019-03-01T15:21:04.953Z,7.07
2019-03-01T15:22:18.560Z,7.13
2019-03-01T15:23:29.588Z,7.11
2019-03-01T15:24:41.600Z,7.05
2019-03-01T15:25:53.358Z,7.07
2019-03-01T15:27:07.354Z,7.13
2019-03-01T15:28:19.117Z,7.14
2019-03-01T15:29:34.172Z,7.22
2019-03-01T15:30:49.772Z,7.18
2019-03-01T15:32:00.906Z,7.01
2019-03-01T15:33:14.731Z,7.18
2019-03-01T15:34:28.341Z,7.13
2019-03-01T15:35:42.214Z,7.21
2019-03-01T15:36:55.855Z,7.18
2019-03-01T15:38:06.982Z,7.07
2019-03-01T15:39:23.126Z,7.04
2019-03-01T15:40:36.909Z,7.01
2019-03-01T15:41:47.841Z,7